Time;durP1;ratioP1;P1;durP2;ratioP2;P2;SDS_P1;SDS_P2;PMS_P1;PMS_P2;Temp;Humidity;BMP_temperature;BMP_pressure;BME280_temperature;BME280_humidity;BME280_pressure;Samples;Min_cycle;Max_cycle;Signal;HPM_P1;HPM_P2
2023/03/11 00:01:25;;;;;;;9.57;4.25;;;15.30;99.90;;;;;;4978125;28;20014;-71
2023/03/11 00:03:50;;;;;;;8.23;3.72;;;15.30;99.90;;;;;;4978657;28;20046;-72
2023/03/11 00:06:16;;;;;;;8.02;3.50;;;15.30;99.90;;;;;;4978055;28;20023;-72
2023/03/11 00:08:42;;;;;;;7.05;3.92;;;15.40;99.90;;;;;;4978390;28;20031;-72
2023/03/11 00:11:08;;;;;;;12.43;3.67;;;15.40;99.90;;;;;;4960840;28;20031;-72
2023/03/11 00:13:35;;;;;;;10.82;3.70;;;15.40;99.90;;;;;;4960976;28;20027;-72
2023/03/11 00:16:01;;;;;;;7.85;3.70;;;15.40;99.90;;;;;;4960605;28;20097;-72
2023/03/11 00:18:30;;;;;;;9.43;3.90;;;15.50;99.90;;;;;;4977915;28;20066;-72
2023/03/11 00:20:58;;;;;;;6.28;2.85;;;15.50;99.90;;;;;;4977721;28;20026;-72
2023/03/11 00:23:25;;;;;;;7.65;3.42;;;15.50;99.90;;;;;;4977895;28;20082;-72
2023/03/11 00:25:51;;;;;;;6.93;3.30;;;15.60;99.90;;;;;;4960700;28;20033;-72
2023/03/11 00:28:17;;;;;;;6.32;3.35;;;15.70;99.90;;;;;;4960049;28;20030;-72
2023/03/11 00:30:45;;;;;;;12.77;3.40;;;15.70;99.90;;;;;;4960280;28;20487;-72
2023/03/11 00:33:13;;;;;;;8.30;3.10;;;15.80;99.90;;;;;;4977771;28;20061;-72
2023/03/11 00:35:40;;;;;;;9.13;2.80;;;15.70;99.90;;;;;;4977603;28;20027;-72
2023/03/11 00:38:10;;;;;;;9.25;3.13;;;15.70;99.90;;;;;;4976615;28;20039;-72
2023/03/11 00:40:36;;;;;;;7.63;3.13;;;15.70;99.90;;;;;;4975671;28;20023;-71
2023/03/11 00:43:02;;;;;;;12.43;3.35;;;15.70;99.90;;;;;;4977653;28;20034;-72
2023/03/11 00:45:28;;;;;;;10.85;3.80;;;15.80;99.90;;;;;;4959995;28;20035;-72
2023/03/11 00:47:54;;;;;;;10.05;3.38;;;15.80;99.90;;;;;;4943408;28;20042;-71
2023/03/11 00:50:25;;;;;;;7.18;3.55;;;15.90;99.90;;;;;;4977068;28;20019;-71
2023/03/11 00:52:51;;;;;;;10.88;3.55;;;15.90;99.90;;;;;;4977871;28;20435;-71
2023/03/11 00:55:23;;;;;;;6.88;3.15;;;16.00;99.90;;;;;;4977692;28;20034;-72
2023/03/11 00:57:59;;;;;;;4.78;2.35;;;16.00;99.90;;;;;;4959741;28;20065;-71
2023/03/11 01:00:26;;;;;;;10.98;3.00;;;16.10;99.90;;;;;;4976976;28;20070;-71
2023/03/11 01:02:53;;;;;;;10.23;3.00;;;16.20;99.90;;;;;;4977496;28;20023;-70
2023/03/11 01:05:22;;;;;;;9.85;4.30;;;16.20;99.90;;;;;;4977303;28;20058;-71
2023/03/11 01:07:48;;;;;;;11.68;3.95;;;16.30;99.90;;;;;;4977481;28;20545;-72
2023/03/11 01:10:14;;;;;;;8.15;3.20;;;16.30;99.90;;;;;;4977462;28;20023;-71
2023/03/11 01:12:42;;;;;;;9.88;2.90;;;16.40;99.90;;;;;;4977464;28;20030;-72
2023/03/11 01:15:13;;;;;;;12.48;3.30;;;16.40;99.90;;;;;;4975698;28;20023;-71
2023/03/11 01:17:39;;;;;;;7.32;2.60;;;16.50;99.90;;;;;;4977062;28;20110;-71
2023/03/11 01:20:07;;;;;;;9.38;3.25;;;16.50;99.90;;;;;;4977288;28;20055;-71
2023/03/11 01:22:33;;;;;;;10.73;3.47;;;16.50;99.90;;;;;;4977065;28;20019;-71
2023/03/11 01:24:58;;;;;;;10.13;2.78;;;16.60;99.90;;;;;;4959950;28;20019;-71
2023/03/11 01:27:24;;;;;;;8.48;2.70;;;16.50;99.90;;;;;;4977406;28;20041;-71
2023/03/11 01:29:50;;;;;;;7.82;3.55;;;16.60;99.90;;;;;;4976683;28;20031;-71
2023/03/11 01:32:15;;;;;;;5.88;2.75;;;16.70;99.90;;;;;;4977274;28;20771;-71
2023/03/11 01:34:41;;;;;;;8.00;2.80;;;16.70;99.90;;;;;;4977267;28;20464;-71
2023/03/11 01:37:07;;;;;;;6.80;2.47;;;16.70;99.90;;;;;;4975025;28;20102;-71
2023/03/11 01:39:32;;;;;;;9.52;3.35;;;16.80;99.90;;;;;;4979397;28;20026;-71
2023/03/11 01:41:58;;;;;;;14.35;3.00;;;16.80;99.90;;;;;;4963328;28;20545;-71
2023/03/11 01:44:24;;;;;;;10.02;2.67;;;16.90;99.90;;;;;;4980055;28;20019;-71
2023/03/11 01:46:53;;;;;;;6.15;2.22;;;16.90;99.90;;;;;;4980235;28;20037;-72
2023/03/11 01:49:21;;;;;;;7.05;2.75;;;17.00;99.90;;;;;;4980626;28;20037;-71
2023/03/11 01:51:50;;;;;;;5.25;2.53;;;17.00;99.90;;;;;;4963151;28;20035;-71
2023/03/11 01:54:24;;;;;;;7.27;3.20;;;17.10;99.90;;;;;;4980507;28;20019;-71
2023/03/11 01:56:50;;;;;;;6.63;2.50;;;17.10;99.90;;;;;;4961296;28;20090;-71
2023/03/11 01:59:21;;;;;;;5.90;2.72;;;17.10;99.90;;;;;;4963533;28;20027;-71
2023/03/11 02:02:39;;;;;;;4.82;2.08;;;17.20;99.90;;;;;;4980281;28;20077;-71
2023/03/11 02:05:05;;;;;;;8.95;2.80;;;17.30;99.90;;;;;;4951890;29;20038;-71
2023/03/11 02:07:31;;;;;;;10.75;2.50;;;17.30;99.90;;;;;;4975868;28;20026;-72
2023/03/11 02:09:57;;;;;;;5.32;2.72;;;17.20;99.90;;;;;;4980239;28;20069;-71
2023/03/11 02:12:23;;;;;;;6.72;2.70;;;17.30;99.90;;;;;;4962379;28;20031;-71
2023/03/11 02:14:52;;;;;;;10.30;2.38;;;17.40;99.90;;;;;;4963390;28;20381;-71
2023/03/11 02:17:19;;;;;;;6.05;2.20;;;17.40;99.90;;;;;;4980228;28;20022;-71
2023/03/11 02:20:21;;;;;;;6.72;2.80;;;17.40;99.90;;;;;;4980509;28;20077;-71
2023/03/11 02:22:49;;;;;;;7.65;2.25;;;17.40;99.90;;;;;;4977213;28;20051;-71
2023/03/11 02:25:27;;;;;;;6.45;2.95;;;17.40;99.90;;;;;;4962477;28;20106;-71
2023/03/11 02:27:54;;;;;;;21.38;3.97;;;17.40;99.90;;;;;;4961531;28;20122;-71
2023/03/11 02:30:22;;;;;;;5.38;2.08;;;17.40;99.90;;;;;;4978966;28;20023;-71
2023/03/11 02:32:49;;;;;;;5.22;1.85;;;17.40;99.90;;;;;;4980203;28;20509;-71
2023/03/11 02:35:15;;;;;;;2.67;1.88;;;17.50;99.90;;;;;;4961621;28;20109;-71
2023/03/11 02:37:46;;;;;;;8.90;2.65;;;17.60;99.90;;;;;;4967851;28;20135;-72
2023/03/11 02:40:25;;;;;;;5.93;2.30;;;17.60;99.90;;;;;;4979715;28;20027;-71
2023/03/11 02:42:55;;;;;;;8.18;2.80;;;17.60;99.90;;;;;;4978256;28;20023;-71
2023/03/11 02:45:23;;;;;;;9.68;2.10;;;17.60;99.90;;;;;;4961322;28;20022;-71
2023/03/11 02:47:50;;;;;;;5.95;2.22;;;17.60;99.90;;;;;;4978529;28;20050;-71
2023/03/11 02:50:17;;;;;;;7.97;2.40;;;17.60;99.90;;;;;;4979709;28;20023;-71
2023/03/11 02:52:43;;;;;;;6.45;2.17;;;17.60;99.90;;;;;;4979421;28;20027;-70
2023/03/11 02:55:10;;;;;;;9.68;2.45;;;17.60;99.90;;;;;;4978373;28;20130;-70
2023/03/11 02:57:37;;;;;;;4.45;2.00;;;17.60;99.90;;;;;;4978481;28;20035;-70
2023/03/11 03:00:12;;;;;;;5.10;2.15;;;17.70;99.90;;;;;;4978879;28;20030;-71
2023/03/11 03:02:38;;;;;;;6.15;2.88;;;17.80;99.90;;;;;;4970500;28;20042;-71
2023/03/11 03:05:04;;;;;;;9.52;2.75;;;17.80;99.90;;;;;;4959963;28;20031;-71
2023/03/11 03:07:31;;;;;;;5.75;1.70;;;17.70;99.90;;;;;;4979560;28;20049;-71
2023/03/11 03:09:56;;;;;;;10.75;2.65;;;17.70;99.90;;;;;;4979667;28;20407;-71
2023/03/11 03:12:22;;;;;;;7.15;2.88;;;17.60;99.90;;;;;;4978036;28;20035;-71
2023/03/11 03:14:48;;;;;;;4.50;2.10;;;17.60;99.90;;;;;;4978446;28;20048;-71
2023/03/11 03:17:13;;;;;;;3.50;1.75;;;17.60;99.90;;;;;;4979238;28;20031;-71
2023/03/11 03:19:39;;;;;;;4.65;2.25;;;17.60;99.90;;;;;;4979343;28;20027;-70
2023/03/11 03:22:05;;;;;;;6.35;1.88;;;17.60;99.90;;;;;;4979339;28;20119;-71
2023/03/11 03:24:30;;;;;;;8.45;2.35;;;17.60;99.90;;;;;;4979430;28;20030;-71
2023/03/11 03:26:56;;;;;;;7.47;1.83;;;17.70;99.90;;;;;;4979163;28;20034;-70
2023/03/11 03:29:22;;;;;;;3.85;2.03;;;17.60;99.90;;;;;;4961847;28;20042;-70
2023/03/11 03:31:47;;;;;;;4.07;2.17;;;17.60;99.90;;;;;;4978592;28;20034;-72
2023/03/11 03:34:13;;;;;;;4.13;1.70;;;17.60;99.90;;;;;;4961602;28;20027;-71
2023/03/11 03:36:39;;;;;;;11.45;2.00;;;17.60;99.90;;;;;;4978513;28;20035;-71
2023/03/11 03:39:05;;;;;;;3.13;1.90;;;17.50;99.90;;;;;;4978910;28;20033;-72
2023/03/11 03:41:31;;;;;;;4.85;2.05;;;17.50;99.90;;;;;;4978643;28;20037;-71
2023/03/11 03:43:57;;;;;;;7.78;2.00;;;17.40;99.90;;;;;;4978791;28;20073;-71
2023/03/11 03:46:22;;;;;;;4.20;2.45;;;17.40;99.90;;;;;;4978516;28;20023;-71
2023/03/11 03:48:48;;;;;;;4.45;1.75;;;17.40;99.90;;;;;;4978756;28;20029;-73
2023/03/11 03:51:14;;;;;;;4.85;2.05;;;17.50;99.90;;;;;;4978349;28;20037;-73
2023/03/11 03:53:41;;;;;;;7.53;2.17;;;17.50;99.90;;;;;;4961189;28;20023;-73
2023/03/11 03:56:15;;;;;;;6.65;2.20;;;17.40;99.90;;;;;;4978479;28;20070;-73
2023/03/11 03:58:41;;;;;;;7.25;2.40;;;17.40;99.90;;;;;;4978399;28;20023;-73
2023/03/11 04:01:08;;;;;;;7.47;2.35;;;17.30;99.90;;;;;;4960193;28;20103;-73
2023/03/11 04:03:34;;;;;;;6.47;2.20;;;17.30;99.90;;;;;;4978257;28;20019;-73
2023/03/11 04:06:13;;;;;;;7.20;2.08;;;17.20;99.90;;;;;;4977413;28;20022;-72
2023/03/11 04:08:39;;;;;;;8.15;2.97;;;17.30;99.90;;;;;;4978306;28;20058;-73
2023/03/11 04:11:05;;;;;;;5.30;2.13;;;17.20;99.90;;;;;;4978083;28;20503;-72
2023/03/11 04:13:30;;;;;;;7.20;2.92;;;17.20;99.90;;;;;;4978298;28;20106;-73
2023/03/11 04:15:56;;;;;;;8.48;2.78;;;17.20;99.90;;;;;;4977907;28;20126;-73
2023/03/11 04:18:22;;;;;;;7.18;2.50;;;17.10;99.90;;;;;;4978118;28;20026;-72
2023/03/11 04:20:48;;;;;;;7.13;2.30;;;17.10;99.90;;;;;;4978179;28;20027;-73
2023/03/11 04:23:14;;;;;;;8.13;2.80;;;17.10;99.90;;;;;;4977991;28;20023;-73
2023/03/11 04:25:39;;;;;;;5.65;2.10;;;17.10;99.90;;;;;;4977983;28;20045;-73
2023/03/11 04:28:05;;;;;;;5.88;2.58;;;17.10;99.90;;;;;;4978002;28;20031;-73
2023/03/11 04:30:31;;;;;;;10.93;2.17;;;17.10;99.90;;;;;;4977806;28;20034;-73
2023/03/11 04:32:56;;;;;;;4.03;1.98;;;17.10;99.90;;;;;;4978031;28;20031;-73
2023/03/11 04:35:22;;;;;;;7.07;2.15;;;17.00;99.90;;;;;;4977914;28;20427;-72
2023/03/11 04:37:48;;;;;;;4.32;1.85;;;17.10;99.90;;;;;;4977412;28;20047;-73
2023/03/11 04:40:14;;;;;;;7.53;2.40;;;17.10;99.90;;;;;;4977691;28;20078;-73
2023/03/11 04:42:39;;;;;;;8.10;2.83;;;17.00;99.90;;;;;;4979532;28;20026;-73
2023/03/11 04:45:06;;;;;;;5.97;2.28;;;17.00;99.90;;;;;;4966941;28;20054;-73
2023/03/11 04:47:32;;;;;;;5.93;2.22;;;16.90;99.90;;;;;;4960549;28;20062;-72
2023/03/11 04:49:58;;;;;;;9.00;2.55;;;16.90;99.90;;;;;;4978012;28;20447;-73
2023/03/11 04:52:23;;;;;;;6.72;2.53;;;16.80;99.90;;;;;;4977446;28;20030;-72
2023/03/11 04:54:49;;;;;;;5.45;2.63;;;16.80;99.90;;;;;;4960420;28;20054;-73
2023/03/11 04:57:15;;;;;;;10.75;2.72;;;16.80;99.90;;;;;;4977607;28;20027;-73
2023/03/11 04:59:40;;;;;;;5.70;2.42;;;16.80;99.90;;;;;;4977928;28;20105;-73
2023/03/11 05:02:06;;;;;;;5.97;2.42;;;16.70;99.90;;;;;;4960199;28;20085;-72
2023/03/11 05:04:32;;;;;;;9.27;2.90;;;16.70;99.90;;;;;;4960089;28;20034;-73
2023/03/11 05:06:58;;;;;;;10.25;2.75;;;16.70;99.90;;;;;;4977627;28;20041;-74
2023/03/11 05:09:23;;;;;;;8.88;2.85;;;16.70;99.90;;;;;;4977683;28;20018;-73
2023/03/11 05:11:49;;;;;;;6.07;2.00;;;16.70;99.90;;;;;;4977646;28;20442;-72
2023/03/11 05:14:15;;;;;;;7.35;2.15;;;16.70;99.90;;;;;;4962159;28;20031;-73
2023/03/11 05:16:40;;;;;;;5.32;2.38;;;16.60;99.90;;;;;;4981165;28;20038;-73
2023/03/11 05:19:29;;;;;;;5.55;2.10;;;16.60;99.90;;;;;;4981464;28;20509;-73
2023/03/11 05:21:52;;;;;;;8.52;2.38;;;16.60;99.90;;;;;;4980972;28;20507;-73
2023/03/11 05:24:17;;;;;;;8.05;2.50;;;16.60;99.90;;;;;;4981245;28;20071;-73
2023/03/11 05:26:43;;;;;;;7.75;2.45;;;16.60;99.90;;;;;;4981176;28;20031;-70
2023/03/11 05:29:09;;;;;;;15.38;3.97;;;16.50;99.90;;;;;;4980719;28;20031;-72
2023/03/11 05:31:34;;;;;;;10.25;3.40;;;16.50;99.90;;;;;;4979723;28;20098;-71
2023/03/11 05:34:00;;;;;;;6.93;2.70;;;16.50;99.90;;;;;;4980594;28;20509;-72
2023/03/11 05:36:26;;;;;;;10.18;3.05;;;16.60;99.90;;;;;;4963332;28;20027;-71
2023/03/11 05:38:52;;;;;;;5.13;2.58;;;16.60;99.90;;;;;;4980495;28;20043;-72
2023/03/11 05:41:18;;;;;;;11.88;3.45;;;16.50;99.90;;;;;;4981059;28;20023;-72
2023/03/11 05:43:44;;;;;;;10.32;2.83;;;16.50;99.90;;;;;;4980970;28;20076;-72
2023/03/11 05:46:10;;;;;;;5.40;2.03;;;16.50;99.90;;;;;;4980785;28;20468;-72
2023/03/11 05:48:36;;;;;;;7.95;2.65;;;16.50;99.90;;;;;;4963389;28;20023;-72
2023/03/11 05:51:10;;;;;;;6.03;2.45;;;16.50;99.90;;;;;;4980657;28;20075;-72
2023/03/11 05:53:36;;;;;;;11.00;2.78;;;16.50;99.90;;;;;;4980990;28;20110;-75
2023/03/11 05:56:02;;;;;;;7.32;2.67;;;16.40;99.90;;;;;;4980321;28;20023;-75
2023/03/11 05:58:29;;;;;;;8.52;3.20;;;16.40;99.90;;;;;;4980555;28;20019;-72
2023/03/11 06:00:55;;;;;;;9.60;2.22;;;16.40;99.90;;;;;;4963087;28;20019;-73
2023/03/11 06:03:22;;;;;;;10.20;2.72;;;16.30;99.90;;;;;;4980701;28;20130;-72
2023/03/11 06:05:49;;;;;;;9.00;2.80;;;16.30;99.90;;;;;;4980345;28;20395;-72
2023/03/11 06:08:15;;;;;;;7.85;3.17;;;16.30;99.90;;;;;;4980233;28;20125;-73
2023/03/11 06:10:41;;;;;;;9.90;3.25;;;16.30;99.90;;;;;;4962880;28;20030;-73
2023/03/11 06:13:08;;;;;;;8.35;3.40;;;16.30;99.90;;;;;;4961507;28;20054;-73
2023/03/11 06:15:36;;;;;;;15.93;3.28;;;16.30;99.90;;;;;;4979850;28;20034;-73
2023/03/11 06:18:03;;;;;;;6.80;2.50;;;16.30;99.90;;;;;;4979771;28;20511;-73
2023/03/11 06:20:29;;;;;;;14.27;3.42;;;16.30;99.90;;;;;;4963065;28;20078;-72
2023/03/11 06:22:54;;;;;;;6.07;2.70;;;16.20;99.90;;;;;;4979561;28;20019;-73
2023/03/11 06:25:20;;;;;;;7.95;2.83;;;16.20;99.90;;;;;;4979409;28;20027;-73
2023/03/11 06:27:52;;;;;;;9.13;2.53;;;16.20;99.90;;;;;;4980096;28;20054;-73
2023/03/11 06:30:18;;;;;;;6.45;2.58;;;16.20;99.90;;;;;;4972749;28;20023;-73
2023/03/11 06:32:47;;;;;;;8.38;2.83;;;16.20;99.90;;;;;;4979766;28;20023;-72
2023/03/11 06:35:13;;;;;;;8.63;2.75;;;16.20;99.90;;;;;;4962669;28;20086;-73
2023/03/11 06:37:39;;;;;;;8.68;3.05;;;16.20;99.90;;;;;;4962478;28;20047;-72
2023/03/11 06:40:07;;;;;;;8.40;3.25;;;16.20;99.90;;;;;;4962444;28;20054;-73
2023/03/11 06:42:33;;;;;;;10.77;2.50;;;16.20;99.90;;;;;;4979792;28;20069;-72
2023/03/11 06:44:59;;;;;;;3.75;2.15;;;16.20;99.90;;;;;;4979878;28;20065;-72
2023/03/11 06:47:25;;;;;;;10.57;2.60;;;16.20;99.90;;;;;;4979975;28;20027;-73
2023/03/11 06:49:51;;;;;;;6.55;2.17;;;16.20;99.90;;;;;;4980084;28;20034;-72
2023/03/11 06:52:16;;;;;;;12.77;3.03;;;16.20;99.90;;;;;;4979300;28;20049;-72
2023/03/11 06:54:42;;;;;;;9.57;2.90;;;16.20;99.90;;;;;;4979698;28;20403;-72
2023/03/11 06:57:08;;;;;;;12.30;3.20;;;16.20;99.90;;;;;;4979382;28;20033;-73
2023/03/11 06:59:34;;;;;;;10.65;2.83;;;16.20;99.90;;;;;;4979428;28;20026;-73
2023/03/11 07:02:01;;;;;;;8.05;2.83;;;16.20;99.90;;;;;;4979297;28;20093;-73
2023/03/11 07:04:27;;;;;;;5.47;2.38;;;16.10;99.90;;;;;;4979712;28;20033;-73
2023/03/11 07:06:52;;;;;;;9.65;2.95;;;16.20;99.90;;;;;;4979284;28;20106;-72
2023/03/11 07:09:21;;;;;;;13.23;3.72;;;16.20;99.90;;;;;;4979188;28;20030;-72
2023/03/11 07:11:46;;;;;;;11.40;3.33;;;16.20;99.90;;;;;;4979536;28;20050;-72
2023/03/11 07:14:12;;;;;;;10.35;3.25;;;16.20;99.90;;;;;;4979541;28;20026;-73
2023/03/11 07:16:38;;;;;;;11.48;3.55;;;16.20;99.90;;;;;;4979067;28;20138;-73
2023/03/11 07:19:04;;;;;;;10.05;2.53;;;16.10;99.90;;;;;;4979819;28;20027;-72
2023/03/11 07:21:31;;;;;;;11.05;3.50;;;16.10;99.90;;;;;;4979289;28;20435;-72
2023/03/11 07:23:59;;;;;;;12.25;3.83;;;16.10;99.90;;;;;;4978238;28;20041;-71
2023/03/11 07:26:26;;;;;;;9.30;2.97;;;16.10;99.90;;;;;;4979154;28;20022;-72
2023/03/11 07:28:54;;;;;;;11.32;3.47;;;16.10;99.90;;;;;;4979194;28;20089;-72
2023/03/11 07:31:22;;;;;;;10.10;3.28;;;16.00;99.90;;;;;;4979187;28;20109;-72
2023/03/11 07:33:48;;;;;;;9.07;3.45;;;16.10;99.90;;;;;;4979005;28;20394;-71
2023/03/11 07:36:17;;;;;;;7.63;3.30;;;16.10;99.90;;;;;;4978329;28;20058;-72
2023/03/11 07:38:43;;;;;;;8.02;2.85;;;16.20;99.90;;;;;;4978884;28;20126;-72
2023/03/11 07:41:11;;;;;;;9.10;3.25;;;16.20;99.90;;;;;;4979227;28;20015;-71
2023/03/11 07:43:37;;;;;;;5.70;2.78;;;16.20;99.90;;;;;;4961561;28;20023;-72
2023/03/11 07:46:05;;;;;;;7.88;3.28;;;16.20;99.90;;;;;;4961602;28;20031;-72
2023/03/11 07:48:31;;;;;;;7.97;3.08;;;16.20;99.90;;;;;;4978898;28;20026;-71
2023/03/11 07:51:06;;;;;;;10.07;3.00;;;16.20;99.90;;;;;;4979002;28;20054;-71
2023/03/11 07:53:33;;;;;;;10.00;3.40;;;16.20;99.90;;;;;;4978772;28;20078;-71
2023/03/11 07:55:59;;;;;;;9.82;3.40;;;16.10;99.90;;;;;;4978315;28;20069;-71
2023/03/11 07:58:25;;;;;;;7.88;3.08;;;16.20;99.90;;;;;;4978694;28;20050;-71
2023/03/11 08:00:51;;;;;;;9.07;2.63;;;16.20;99.90;;;;;;4978629;28;20027;-71
2023/03/11 08:03:17;;;;;;;10.00;3.58;;;16.20;99.90;;;;;;4978557;28;20066;-71
2023/03/11 08:05:42;;;;;;;11.77;3.20;;;16.20;99.90;;;;;;4978581;28;20019;-72
2023/03/11 08:08:08;;;;;;;6.07;2.63;;;16.20;99.90;;;;;;4978630;28;20040;-71
2023/03/11 08:10:38;;;;;;;9.80;2.78;;;16.20;99.90;;;;;;4961356;28;20058;-71
2023/03/11 08:13:03;;;;;;;7.63;3.45;;;16.20;99.90;;;;;;4961365;28;20034;-71
2023/03/11 08:15:29;;;;;;;6.72;2.60;;;16.20;99.90;;;;;;4978251;28;20034;-70
2023/03/11 08:17:55;;;;;;;15.68;4.20;;;16.20;99.90;;;;;;4961139;28;20034;-71
2023/03/11 08:20:21;;;;;;;8.73;3.28;;;16.20;99.90;;;;;;4961065;28;20025;-72
2023/03/11 08:22:46;;;;;;;6.80;2.60;;;16.20;99.90;;;;;;4960818;28;20402;-73
2023/03/11 08:25:12;;;;;;;5.72;2.58;;;16.20;99.90;;;;;;4978573;28;20085;-72
2023/03/11 08:27:39;;;;;;;7.57;3.10;;;16.00;99.90;;;;;;4961095;28;20053;-72
2023/03/11 08:30:05;;;;;;;4.65;2.72;;;15.90;99.90;;;;;;4978302;28;20019;-72
2023/03/11 08:32:32;;;;;;;7.10;2.90;;;15.70;99.90;;;;;;4960872;28;20207;-73
2023/03/11 08:34:57;;;;;;;5.63;2.88;;;15.50;99.90;;;;;;4961038;28;20023;-73
2023/03/11 08:37:23;;;;;;;7.22;3.22;;;15.40;99.90;;;;;;4960481;28;20046;-72
2023/03/11 08:39:49;;;;;;;8.88;2.65;;;15.30;99.90;;;;;;4960729;28;20050;-74
2023/03/11 08:42:16;;;;;;;15.07;3.20;;;15.30;99.90;;;;;;4978293;28;20023;-72
2023/03/11 08:44:42;;;;;;;10.10;3.30;;;15.30;99.90;;;;;;4977997;28;20022;-73
2023/03/11 08:47:08;;;;;;;9.10;3.63;;;15.40;99.90;;;;;;4977657;28;20027;-73
2023/03/11 08:49:34;;;;;;;10.60;3.40;;;15.40;99.90;;;;;;4978042;28;20037;-72
2023/03/11 08:52:00;;;;;;;13.02;4.32;;;15.50;99.90;;;;;;4960365;28;20439;-74
2023/03/11 08:54:26;;;;;;;11.02;3.45;;;15.50;99.90;;;;;;4978245;28;20033;-73
2023/03/11 08:56:52;;;;;;;8.82;3.40;;;15.60;99.90;;;;;;4977962;28;20027;-73
2023/03/11 08:59:17;;;;;;;8.68;3.55;;;15.70;99.90;;;;;;4977884;28;20023;-73
2023/03/11 09:01:43;;;;;;;6.05;2.95;;;15.70;99.90;;;;;;4977555;28;20510;-73
2023/03/11 09:04:09;;;;;;;12.45;5.05;;;15.70;99.90;;;;;;4978099;28;20080;-73
2023/03/11 09:06:34;;;;;;;13.95;3.33;;;15.70;99.90;;;;;;4960104;28;20034;-74
2023/03/11 09:09:00;;;;;;;8.40;3.47;;;15.60;99.90;;;;;;4978086;28;20062;-73
2023/03/11 09:11:26;;;;;;;10.63;3.55;;;15.60;99.90;;;;;;4977833;28;20042;-73
2023/03/11 09:13:52;;;;;;;13.27;4.18;;;15.60;99.90;;;;;;4977784;28;20377;-73
2023/03/11 09:16:20;;;;;;;7.30;3.17;;;15.60;99.90;;;;;;4977551;28;20038;-73
2023/03/11 09:18:47;;;;;;;9.90;3.13;;;15.40;99.90;;;;;;4960407;28;20027;-73
2023/03/11 09:21:12;;;;;;;11.75;4.00;;;15.20;99.90;;;;;;4960308;28;20019;-73
2023/03/11 09:23:39;;;;;;;6.28;3.72;;;15.20;99.90;;;;;;4977624;28;20571;-73
2023/03/11 09:26:04;;;;;;;6.20;2.95;;;15.10;99.90;;;;;;4960304;28;20031;-72
2023/03/11 09:28:30;;;;;;;14.18;3.42;;;14.90;99.90;;;;;;4960469;28;20121;-73
2023/03/11 09:30:56;;;;;;;13.77;3.17;;;14.80;99.90;;;;;;4960242;28;20062;-73
2023/03/11 09:33:21;;;;;;;6.97;3.53;;;14.70;99.90;;;;;;4977681;28;20038;-73
2023/03/11 09:35:47;;;;;;;7.93;3.30;;;14.70;99.90;;;;;;4977661;28;20030;-73
2023/03/11 09:38:13;;;;;;;13.55;4.88;;;14.60;99.90;;;;;;4977576;28;20078;-73
2023/03/11 09:41:03;;;;;;;13.20;3.10;;;14.60;99.90;;;;;;4960120;28;20030;-73
2023/03/11 09:43:51;;;;;;;12.32;3.60;;;14.60;99.90;;;;;;4971769;28;20034;-73
2023/03/11 09:46:43;;;;;;;13.52;4.30;;;14.60;99.90;;;;;;4977213;28;20034;-73
2023/03/11 09:49:18;;;;;;;12.77;4.20;;;14.60;99.90;;;;;;4964605;28;20046;-73
2023/03/11 09:51:52;;;;;;;10.35;3.70;;;14.60;99.90;;;;;;4977360;28;20105;-74
2023/03/11 09:54:18;;;;;;;7.85;3.00;;;14.50;99.90;;;;;;4977478;28;20030;-74
2023/03/11 09:56:44;;;;;;;11.70;3.22;;;14.50;99.90;;;;;;4977481;28;20030;-74
2023/03/11 09:59:25;;;;;;;7.65;4.28;;;14.50;99.90;;;;;;4977593;28;20023;-74
2023/03/11 10:01:51;;;;;;;10.05;3.42;;;14.40;99.90;;;;;;4963407;28;20023;-74
2023/03/11 10:04:37;;;;;;;4.65;2.97;;;14.40;99.90;;;;;;4981169;28;20501;-74
2023/03/11 10:07:16;;;;;;;6.28;2.72;;;14.40;99.90;;;;;;4967835;28;20029;-74
2023/03/11 10:09:56;;;;;;;8.95;3.58;;;14.30;99.90;;;;;;4979777;28;20026;-74
2023/03/11 10:12:48;;;;;;;11.07;3.10;;;14.30;99.90;;;;;;4963403;28;20023;-74
2023/03/11 10:15:32;;;;;;;10.02;4.10;;;14.30;99.90;;;;;;4980663;28;20476;-74
2023/03/11 10:18:12;;;;;;;6.97;3.17;;;14.30;99.90;;;;;;4980600;28;20498;-74
2023/03/11 10:20:56;;;;;;;7.35;3.72;;;14.30;99.90;;;;;;4963211;28;20034;-74
2023/03/11 10:23:34;;;;;;;3.95;3.15;;;14.30;99.90;;;;;;4975842;28;20574;-73
2023/03/11 10:26:17;;;;;;;6.47;2.58;;;14.30;99.90;;;;;;4962898;28;20058;-74
2023/03/11 10:29:05;;;;;;;3.95;2.58;;;14.40;99.90;;;;;;4981171;28;20026;-74
2023/03/11 10:31:41;;;;;;;5.90;2.92;;;14.40;99.90;;;;;;4991583;28;20021;-74
2023/03/11 10:34:23;;;;;;;6.50;2.33;;;14.50;99.90;;;;;;4969190;28;20097;-74
2023/03/11 10:37:02;;;;;;;2.75;2.25;;;14.50;99.90;;;;;;4991105;28;20030;-74
2023/03/11 10:39:29;;;;;;;3.50;2.30;;;14.50;99.90;;;;;;4977366;28;20398;-74
2023/03/11 10:42:00;;;;;;;3.05;2.03;;;14.40;99.90;;;;;;4980211;28;20069;-74
2023/03/11 10:44:35;;;;;;;1.63;1.50;;;14.40;99.90;;;;;;4962931;28;20038;-73
2023/03/11 10:47:01;;;;;;;2.67;2.25;;;14.30;99.90;;;;;;4975968;28;20038;-73
2023/03/11 10:49:27;;;;;;;2.72;1.90;;;14.20;99.90;;;;;;4979733;28;20041;-74
2023/03/11 10:51:54;;;;;;;3.90;2.10;;;14.10;99.90;;;;;;4979091;28;20411;-74
2023/03/11 10:54:26;;;;;;;7.70;1.85;;;14.00;99.90;;;;;;4979074;28;20111;-74
2023/03/11 10:56:58;;;;;;;3.47;2.00;;;13.90;99.90;;;;;;4978915;28;20427;-74
2023/03/11 10:59:32;;;;;;;3.28;2.15;;;13.90;99.90;;;;;;4961892;28;20022;-73
2023/03/11 11:02:22;;;;;;;2.50;2.28;;;13.90;99.90;;;;;;4978518;28;20031;-72
2023/03/11 11:04:49;;;;;;;4.45;1.83;;;14.00;99.90;;;;;;4978318;28;20043;-74
2023/03/11 11:07:38;;;;;;;1.60;1.50;;;13.90;99.90;;;;;;4978773;28;20483;-74
2023/03/11 11:10:20;;;;;;;2.17;1.63;;;14.00;99.90;;;;;;4961469;28;20038;-74
2023/03/11 11:13:19;;;;;;;2.05;1.80;;;13.90;99.90;;;;;;4977881;28;20027;-74
2023/03/11 11:16:15;;;;;;;3.63;1.88;;;13.90;99.90;;;;;;4955795;28;20046;-75
2023/03/11 11:18:47;;;;;;;1.63;1.52;;;13.90;99.90;;;;;;4962375;28;20051;-74
2023/03/11 11:21:14;;;;;;;1.98;1.77;;;13.90;99.90;;;;;;4975895;28;20034;-74
2023/03/11 11:23:48;;;;;;;2.13;1.92;;;13.90;99.90;;;;;;4979238;28;20019;-74
2023/03/11 11:26:24;;;;;;;3.03;1.75;;;14.00;99.90;;;;;;4979088;28;20034;-74
2023/03/11 11:29:08;;;;;;;2.17;1.90;;;13.90;99.90;;;;;;4973175;28;20050;-73
2023/03/11 11:31:34;;;;;;;2.60;1.88;;;13.90;99.90;;;;;;4979124;28;20058;-74
2023/03/11 11:34:00;;;;;;;2.53;1.90;;;13.90;99.90;;;;;;4979175;28;20034;-74
2023/03/11 11:36:33;;;;;;;2.78;1.73;;;14.00;99.90;;;;;;4961343;28;20038;-74
2023/03/11 11:39:03;;;;;;;1.95;1.75;;;14.00;99.90;;;;;;4961392;28;20050;-73
2023/03/11 11:41:32;;;;;;;1.70;1.60;;;14.10;99.90;;;;;;4979232;28;20034;-73
2023/03/11 11:44:05;;;;;;;4.07;2.33;;;14.10;99.90;;;;;;4978951;28;20023;-73
2023/03/11 11:46:42;;;;;;;1.83;1.60;;;14.00;99.90;;;;;;4975908;28;20065;-74
2023/03/11 11:49:19;;;;;;;1.73;1.40;;;14.10;99.90;;;;;;4978996;28;20022;-73
2023/03/11 11:52:00;;;;;;;1.58;1.48;;;14.20;99.90;;;;;;4978757;28;20476;-74
2023/03/11 11:54:49;;;;;;;4.38;1.70;;;14.20;99.90;;;;;;4977570;28;20022;-74
2023/03/11 11:57:16;;;;;;;1.63;1.48;;;14.30;99.90;;;;;;4961377;28;20118;-74
2023/03/11 11:59:43;;;;;;;2.50;2.13;;;14.20;99.90;;;;;;4978787;28;20036;-74
2023/03/11 12:02:27;;;;;;;2.38;1.80;;;14.20;99.90;;;;;;4988384;28;20087;-74
2023/03/11 12:05:02;;;;;;;3.70;1.70;;;14.10;99.90;;;;;;4978751;28;20019;-74
2023/03/11 12:07:52;;;;;;;1.50;1.40;;;14.10;99.90;;;;;;4969739;28;20379;-74
2023/03/11 12:10:24;;;;;;;1.50;1.40;;;14.00;99.90;;;;;;4978276;28;20034;-74
2023/03/11 12:13:27;;;;;;;2.58;1.80;;;13.90;99.90;;;;;;4978637;28;20052;-74
2023/03/11 12:16:11;;;;;;;2.13;1.90;;;13.90;99.90;;;;;;4972107;28;20022;-73
2023/03/11 12:18:49;;;;;;;1.83;1.63;;;13.90;99.90;;;;;;4978485;28;20027;-73
2023/03/11 12:22:01;;;;;;;3.97;1.73;;;13.90;99.90;;;;;;4978223;28;20015;-73
2023/03/11 12:24:55;;;;;;;3.50;1.80;;;13.90;99.90;;;;;;4899744;29;20575;-74
2023/03/11 12:27:42;;;;;;;3.55;1.80;;;13.90;99.90;;;;;;4900035;29;20133;-74
2023/03/11 12:30:22;;;;;;;2.50;2.17;;;13.90;99.90;;;;;;4957070;28;20042;-74
2023/03/11 12:32:56;;;;;;;2.00;1.77;;;13.90;99.90;;;;;;4960203;28;20124;-73
2023/03/11 12:35:26;;;;;;;3.72;1.73;;;13.80;99.90;;;;;;4975207;28;20062;-73
2023/03/11 12:38:04;;;;;;;2.05;1.60;;;13.80;99.90;;;;;;4978022;28;20565;-74
2023/03/11 12:40:55;;;;;;;1.65;1.50;;;13.80;99.90;;;;;;4978181;28;20030;-73
2023/03/11 12:43:32;;;;;;;2.08;1.85;;;13.80;99.90;;;;;;4978269;28;20037;-73
2023/03/11 12:46:03;;;;;;;2.70;1.95;;;13.80;99.90;;;;;;4961741;28;20101;-73
2023/03/11 12:48:28;;;;;;;3.08;2.20;;;13.80;99.90;;;;;;4961037;28;20540;-73
2023/03/11 12:50:58;;;;;;;2.30;1.60;;;13.90;99.90;;;;;;4960711;28;20030;-73
2023/03/11 12:53:44;;;;;;;2.67;1.98;;;13.90;99.90;;;;;;4978050;28;20101;-73
2023/03/11 12:56:38;;;;;;;4.45;1.73;;;13.90;99.90;;;;;;4952713;28;20031;-72
2023/03/11 12:59:22;;;;;;;2.33;2.13;;;14.00;99.90;;;;;;4958329;28;20022;-73